sensor_id;sensor_type;location;lat;lon;timestamp;P1;durP1;ratioP1;P2;durP2;ratioP2
25345;SDS011;13300;51.032;3.710;2023-04-07T00:06:18;8.40;;;2.95;;
25345;SDS011;13300;51.032;3.710;2023-04-07T00:09:55;5.93;;;2.75;;
25345;SDS011;13300;51.032;3.710;2023-04-07T00:13:20;7.88;;;3.10;;
25345;SDS011;13300;51.032;3.710;2023-04-07T00:20:16;5.55;;;3.08;;
25345;SDS011;13300;51.032;3.710;2023-04-07T00:26:27;4.90;;;2.20;;
25345;SDS011;13300;51.032;3.710;2023-04-07T00:29:47;9.70;;;3.33;;
25345;SDS011;13300;51.032;3.710;2023-04-07T00:33:06;7.45;;;3.03;;
25345;SDS011;13300;51.032;3.710;2023-04-07T00:39:59;6.53;;;3.10;;
25345;SDS011;13300;51.032;3.710;2023-04-07T00:43:08;7.60;;;3.53;;
25345;SDS011;13300;51.032;3.710;2023-04-07T00:45:53;8.27;;;3.55;;
25345;SDS011;13300;51.032;3.710;2023-04-07T00:49:04;9.80;;;3.80;;
25345;SDS011;13300;51.032;3.710;2023-04-07T00:52:00;12.23;;;3.55;;
25345;SDS011;13300;51.032;3.710;2023-04-07T00:55:21;13.93;;;4.22;;
25345;SDS011;13300;51.032;3.710;2023-04-07T01:04:31;9.15;;;4.32;;
25345;SDS011;13300;51.032;3.710;2023-04-07T01:07:49;10.52;;;4.82;;
25345;SDS011;13300;51.032;3.710;2023-04-07T01:13:52;12.38;;;5.28;;
25345;SDS011;13300;51.032;3.710;2023-04-07T01:17:01;13.23;;;6.20;;
25345;SDS011;13300;51.032;3.710;2023-04-07T01:26:59;11.90;;;6.45;;
25345;SDS011;13300;51.032;3.710;2023-04-07T01:33:48;17.48;;;7.28;;
25345;SDS011;13300;51.032;3.710;2023-04-07T01:36:29;13.60;;;7.53;;
25345;SDS011;13300;51.032;3.710;2023-04-07T01:43:26;17.30;;;7.75;;
25345;SDS011;13300;51.032;3.710;2023-04-07T01:46:59;15.20;;;8.05;;
25345;SDS011;13300;51.032;3.710;2023-04-07T01:50:19;16.02;;;7.85;;
25345;SDS011;13300;51.032;3.710;2023-04-07T01:53:09;17.55;;;8.40;;
25345;SDS011;13300;51.032;3.710;2023-04-07T01:56:06;15.18;;;8.20;;
25345;SDS011;13300;51.032;3.710;2023-04-07T01:59:23;21.60;;;9.57;;
25345;SDS011;13300;51.032;3.710;2023-04-07T02:02:32;20.55;;;9.82;;
25345;SDS011;13300;51.032;3.710;2023-04-07T02:05:37;22.30;;;10.07;;
25345;SDS011;13300;51.032;3.710;2023-04-07T02:09:03;17.98;;;9.27;;
25345;SDS011;13300;51.032;3.710;2023-04-07T02:14:49;21.10;;;10.85;;
25345;SDS011;13300;51.032;3.710;2023-04-07T02:17:50;20.50;;;9.70;;
25345;SDS011;13300;51.032;3.710;2023-04-07T02:20:48;20.63;;;9.95;;
25345;SDS011;13300;51.032;3.710;2023-04-07T02:23:23;23.45;;;11.02;;
25345;SDS011;13300;51.032;3.710;2023-04-07T02:26:37;20.85;;;10.75;;
25345;SDS011;13300;51.032;3.710;2023-04-07T02:29:49;19.33;;;10.73;;
25345;SDS011;13300;51.032;3.710;2023-04-07T02:32:42;20.52;;;10.43;;
25345;SDS011;13300;51.032;3.710;2023-04-07T02:36:10;22.67;;;11.60;;
25345;SDS011;13300;51.032;3.710;2023-04-07T02:39:00;17.02;;;11.27;;
25345;SDS011;13300;51.032;3.710;2023-04-07T02:48:23;19.67;;;11.13;;
25345;SDS011;13300;51.032;3.710;2023-04-07T02:51:52;22.02;;;11.95;;
25345;SDS011;13300;51.032;3.710;2023-04-07T02:55:17;23.05;;;12.57;;
25345;SDS011;13300;51.032;3.710;2023-04-07T03:01:39;28.60;;;13.38;;
25345;SDS011;13300;51.032;3.710;2023-04-07T03:10:25;25.52;;;13.38;;
25345;SDS011;13300;51.032;3.710;2023-04-07T03:13:01;26.38;;;12.52;;
25345;SDS011;13300;51.032;3.710;2023-04-07T03:16:22;24.80;;;13.18;;
25345;SDS011;13300;51.032;3.710;2023-04-07T03:19:12;26.33;;;13.40;;
25345;SDS011;13300;51.032;3.710;2023-04-07T03:21:55;26.10;;;13.48;;
25345;SDS011;13300;51.032;3.710;2023-04-07T03:24:56;22.70;;;13.45;;
25345;SDS011;13300;51.032;3.710;2023-04-07T03:28:06;24.48;;;14.35;;
25345;SDS011;13300;51.032;3.710;2023-04-07T03:30:43;25.40;;;14.13;;
25345;SDS011;13300;51.032;3.710;2023-04-07T03:33:36;27.30;;;14.60;;
25345;SDS011;13300;51.032;3.710;2023-04-07T03:36:30;27.35;;;14.73;;
25345;SDS011;13300;51.032;3.710;2023-04-07T03:43:21;29.00;;;14.43;;
25345;SDS011;13300;51.032;3.710;2023-04-07T03:46:22;30.92;;;15.15;;
25345;SDS011;13300;51.032;3.710;2023-04-07T03:49:07;31.50;;;14.52;;
25345;SDS011;13300;51.032;3.710;2023-04-07T03:52:01;28.30;;;14.75;;
25345;SDS011;13300;51.032;3.710;2023-04-07T03:54:50;16.67;;;10.43;;
25345;SDS011;13300;51.032;3.710;2023-04-07T03:57:44;28.00;;;15.73;;
25345;SDS011;13300;51.032;3.710;2023-04-07T04:00:30;0.00;;;0.00;;
25345;SDS011;13300;51.032;3.710;2023-04-07T04:03:18;3.08;;;1.85;;
25345;SDS011;13300;51.032;3.710;2023-04-07T04:06:05;25.75;;;15.13;;
25345;SDS011;13300;51.032;3.710;2023-04-07T04:08:46;33.20;;;16.85;;
25345;SDS011;13300;51.032;3.710;2023-04-07T04:11:36;34.42;;;15.70;;
25345;SDS011;13300;51.032;3.710;2023-04-07T04:14:33;0.00;;;0.00;;
25345;SDS011;13300;51.032;3.710;2023-04-07T04:17:15;0.00;;;0.00;;
25345;SDS011;13300;51.032;3.710;2023-04-07T04:23:37;0.00;;;0.00;;
25345;SDS011;13300;51.032;3.710;2023-04-07T04:26:18;5.65;;;3.35;;
25345;SDS011;13300;51.032;3.710;2023-04-07T04:29:16;0.00;;;0.00;;
25345;SDS011;13300;51.032;3.710;2023-04-07T04:32:04;0.00;;;0.00;;
25345;SDS011;13300;51.032;3.710;2023-04-07T04:34:59;0.10;;;0.10;;
25345;SDS011;13300;51.032;3.710;2023-04-07T04:38:16;0.10;;;0.10;;
25345;SDS011;13300;51.032;3.710;2023-04-07T04:44:11;0.00;;;0.00;;
25345;SDS011;13300;51.032;3.710;2023-04-07T04:50:22;0.00;;;0.00;;
25345;SDS011;13300;51.032;3.710;2023-04-07T04:56:51;0.30;;;0.15;;
25345;SDS011;13300;51.032;3.710;2023-04-07T04:59:35;0.10;;;0.10;;
25345;SDS011;13300;51.032;3.710;2023-04-07T05:06:18;0.00;;;0.00;;
25345;SDS011;13300;51.032;3.710;2023-04-07T05:09:59;0.10;;;0.10;;
25345;SDS011;13300;51.032;3.710;2023-04-07T05:16:57;0.00;;;0.00;;
25345;SDS011;13300;51.032;3.710;2023-04-07T05:33:23;0.10;;;0.10;;
25345;SDS011;13300;51.032;3.710;2023-04-07T05:39:02;1.55;;;0.63;;
25345;SDS011;13300;51.032;3.710;2023-04-07T05:41:31;0.10;;;0.10;;
25345;SDS011;13300;51.032;3.710;2023-04-07T05:44:35;45.00;;;19.08;;
25345;SDS011;13300;51.032;3.710;2023-04-07T05:47:01;28.98;;;12.55;;
25345;SDS011;13300;51.032;3.710;2023-04-07T05:49:47;3.65;;;1.27;;
25345;SDS011;13300;51.032;3.710;2023-04-07T05:55:58;46.30;;;20.45;;
25345;SDS011;13300;51.032;3.710;2023-04-07T05:58:44;53.25;;;23.90;;
25345;SDS011;13300;51.032;3.710;2023-04-07T06:01:22;54.85;;;24.15;;
25345;SDS011;13300;51.032;3.710;2023-04-07T06:04:17;54.80;;;23.92;;
25345;SDS011;13300;51.032;3.710;2023-04-07T06:10:09;59.00;;;25.38;;
25345;SDS011;13300;51.032;3.710;2023-04-07T06:12:41;57.58;;;23.95;;
25345;SDS011;13300;51.032;3.710;2023-04-07T06:15:09;45.20;;;18.73;;
25345;SDS011;13300;51.032;3.710;2023-04-07T06:17:35;46.53;;;18.80;;
25345;SDS011;13300;51.032;3.710;2023-04-07T06:20:01;53.75;;;23.13;;
25345;SDS011;13300;51.032;3.710;2023-04-07T06:22:26;55.75;;;23.15;;
25345;SDS011;13300;51.032;3.710;2023-04-07T06:24:52;49.95;;;22.50;;
25345;SDS011;13300;51.032;3.710;2023-04-07T06:27:21;44.67;;;20.08;;
25345;SDS011;13300;51.032;3.710;2023-04-07T06:29:47;45.45;;;21.90;;
25345;SDS011;13300;51.032;3.710;2023-04-07T06:32:46;40.95;;;19.25;;
25345;SDS011;13300;51.032;3.710;2023-04-07T06:42:13;33.85;;;17.42;;
25345;SDS011;13300;51.032;3.710;2023-04-07T06:44:41;37.15;;;17.52;;
25345;SDS011;13300;51.032;3.710;2023-04-07T06:47:07;31.13;;;16.40;;
25345;SDS011;13300;51.032;3.710;2023-04-07T06:49:38;29.75;;;15.10;;
25345;SDS011;13300;51.032;3.710;2023-04-07T06:52:31;22.75;;;14.07;;
25345;SDS011;13300;51.032;3.710;2023-04-07T06:54:59;24.33;;;13.50;;
25345;SDS011;13300;51.032;3.710;2023-04-07T06:57:28;25.27;;;13.68;;
25345;SDS011;13300;51.032;3.710;2023-04-07T06:59:54;21.95;;;11.60;;
25345;SDS011;13300;51.032;3.710;2023-04-07T07:02:22;23.25;;;11.45;;
25345;SDS011;13300;51.032;3.710;2023-04-07T07:04:50;19.20;;;12.13;;
25345;SDS011;13300;51.032;3.710;2023-04-07T07:07:33;18.83;;;11.10;;
25345;SDS011;13300;51.032;3.710;2023-04-07T07:10:02;21.55;;;11.38;;
25345;SDS011;13300;51.032;3.710;2023-04-07T07:12:30;21.80;;;11.52;;
25345;SDS011;13300;51.032;3.710;2023-04-07T07:15:09;19.20;;;10.10;;
25345;SDS011;13300;51.032;3.710;2023-04-07T07:17:41;17.47;;;10.07;;
25345;SDS011;13300;51.032;3.710;2023-04-07T07:20:14;21.90;;;10.32;;
25345;SDS011;13300;51.032;3.710;2023-04-07T07:22:49;21.00;;;10.40;;
25345;SDS011;13300;51.032;3.710;2023-04-07T07:25:18;15.85;;;9.25;;
25345;SDS011;13300;51.032;3.710;2023-04-07T07:27:56;16.65;;;9.48;;
25345;SDS011;13300;51.032;3.710;2023-04-07T07:30:24;15.85;;;9.50;;
25345;SDS011;13300;51.032;3.710;2023-04-07T07:32:59;20.40;;;9.30;;
25345;SDS011;13300;51.032;3.710;2023-04-07T07:35:35;19.70;;;10.93;;
25345;SDS011;13300;51.032;3.710;2023-04-07T07:38:04;20.15;;;10.68;;
25345;SDS011;13300;51.032;3.710;2023-04-07T07:43:47;18.08;;;9.40;;
25345;SDS011;13300;51.032;3.710;2023-04-07T07:46:24;23.60;;;10.05;;
25345;SDS011;13300;51.032;3.710;2023-04-07T07:48:58;17.33;;;10.13;;
25345;SDS011;13300;51.032;3.710;2023-04-07T07:51:29;23.27;;;11.70;;
25345;SDS011;13300;51.032;3.710;2023-04-07T07:54:12;22.27;;;9.48;;
25345;SDS011;13300;51.032;3.710;2023-04-07T07:57:11;14.48;;;7.05;;
25345;SDS011;13300;51.032;3.710;2023-04-07T08:00:13;11.98;;;6.28;;
25345;SDS011;13300;51.032;3.710;2023-04-07T08:09:08;13.05;;;5.55;;
25345;SDS011;13300;51.032;3.710;2023-04-07T08:11:39;9.00;;;4.57;;
25345;SDS011;13300;51.032;3.710;2023-04-07T08:14:07;6.55;;;4.25;;
25345;SDS011;13300;51.032;3.710;2023-04-07T08:16:37;12.05;;;4.75;;
25345;SDS011;13300;51.032;3.710;2023-04-07T08:19:12;8.65;;;4.47;;
25345;SDS011;13300;51.032;3.710;2023-04-07T08:22:06;7.90;;;4.32;;
25345;SDS011;13300;51.032;3.710;2023-04-07T08:24:34;11.35;;;3.90;;
25345;SDS011;13300;51.032;3.710;2023-04-07T08:27:15;8.40;;;3.38;;
25345;SDS011;13300;51.032;3.710;2023-04-07T08:29:50;6.13;;;3.58;;
25345;SDS011;13300;51.032;3.710;2023-04-07T08:32:50;8.63;;;3.45;;
25345;SDS011;13300;51.032;3.710;2023-04-07T08:35:19;8.27;;;3.83;;
25345;SDS011;13300;51.032;3.710;2023-04-07T08:37:48;15.63;;;7.88;;
25345;SDS011;13300;51.032;3.710;2023-04-07T08:40:37;10.57;;;4.80;;
25345;SDS011;13300;51.032;3.710;2023-04-07T08:43:13;10.07;;;4.07;;
25345;SDS011;13300;51.032;3.710;2023-04-07T08:45:45;7.30;;;3.97;;
25345;SDS011;13300;51.032;3.710;2023-04-07T08:51:59;7.78;;;4.40;;
25345;SDS011;13300;51.032;3.710;2023-04-07T08:54:52;10.82;;;4.90;;
25345;SDS011;13300;51.032;3.710;2023-04-07T09:00:38;10.43;;;4.45;;
25345;SDS011;13300;51.032;3.710;2023-04-07T09:03:09;10.93;;;3.83;;
25345;SDS011;13300;51.032;3.710;2023-04-07T09:05:39;12.60;;;3.00;;
25345;SDS011;13300;51.032;3.710;2023-04-07T09:08:10;10.93;;;2.70;;
25345;SDS011;13300;51.032;3.710;2023-04-07T09:10:40;7.63;;;2.35;;
25345;SDS011;13300;51.032;3.710;2023-04-07T09:13:15;10.13;;;3.28;;
25345;SDS011;13300;51.032;3.710;2023-04-07T09:16:10;11.45;;;3.15;;
25345;SDS011;13300;51.032;3.710;2023-04-07T09:18:59;11.98;;;2.90;;
25345;SDS011;13300;51.032;3.710;2023-04-07T09:21:34;8.32;;;2.13;;
25345;SDS011;13300;51.032;3.710;2023-04-07T09:24:29;13.10;;;2.70;;
25345;SDS011;13300;51.032;3.710;2023-04-07T09:29:43;10.63;;;2.40;;
25345;SDS011;13300;51.032;3.710;2023-04-07T09:32:14;9.45;;;2.70;;
25345;SDS011;13300;51.032;3.710;2023-04-07T09:35:08;11.40;;;3.10;;
25345;SDS011;13300;51.032;3.710;2023-04-07T09:37:39;11.98;;;2.90;;
25345;SDS011;13300;51.032;3.710;2023-04-07T09:40:31;7.22;;;2.38;;
25345;SDS011;13300;51.032;3.710;2023-04-07T09:43:00;9.05;;;2.63;;
25345;SDS011;13300;51.032;3.710;2023-04-07T09:45:30;9.57;;;2.42;;
25345;SDS011;13300;51.032;3.710;2023-04-07T09:48:06;10.50;;;2.90;;
25345;SDS011;13300;51.032;3.710;2023-04-07T09:50:53;9.68;;;2.20;;
25345;SDS011;13300;51.032;3.710;2023-04-07T09:53:43;7.47;;;1.65;;
25345;SDS011;13300;51.032;3.710;2023-04-07T09:56:21;5.65;;;1.67;;
25345;SDS011;13300;51.032;3.710;2023-04-07T09:58:55;7.53;;;2.10;;
25345;SDS011;13300;51.032;3.710;2023-04-07T10:01:36;7.35;;;1.73;;
25345;SDS011;13300;51.032;3.710;2023-04-07T10:04:33;4.80;;;1.77;;
25345;SDS011;13300;51.032;3.710;2023-04-07T10:12:48;16.33;;;5.18;;
25345;SDS011;13300;51.032;3.710;2023-04-07T10:15:21;9.82;;;2.40;;
25345;SDS011;13300;51.032;3.710;2023-04-07T10:18:28;11.38;;;2.60;;
25345;SDS011;13300;51.032;3.710;2023-04-07T10:24:28;10.02;;;2.70;;
25345;SDS011;13300;51.032;3.710;2023-04-07T10:27:18;10.50;;;2.87;;
25345;SDS011;13300;51.032;3.710;2023-04-07T10:34:09;10.15;;;2.60;;
25345;SDS011;13300;51.032;3.710;2023-04-07T10:37:12;10.20;;;3.25;;
25345;SDS011;13300;51.032;3.710;2023-04-07T10:39:49;7.95;;;1.98;;
25345;SDS011;13300;51.032;3.710;2023-04-07T10:42:46;12.35;;;2.00;;
25345;SDS011;13300;51.032;3.710;2023-04-07T11:03:27;7.00;;;1.80;;
25345;SDS011;13300;51.032;3.710;2023-04-07T11:08:41;6.00;;;1.52;;
25345;SDS011;13300;51.032;3.710;2023-04-07T11:14:28;2.60;;;1.02;;
25345;SDS011;13300;51.032;3.710;2023-04-07T11:17:15;3.65;;;1.35;;
25345;SDS011;13300;51.032;3.710;2023-04-07T11:20:04;4.90;;;1.40;;
25345;SDS011;13300;51.032;3.710;2023-04-07T11:22:57;3.35;;;0.98;;
25345;SDS011;13300;51.032;3.710;2023-04-07T11:25:35;5.70;;;2.30;;
25345;SDS011;13300;51.032;3.710;2023-04-07T11:28:04;4.50;;;1.50;;
25345;SDS011;13300;51.032;3.710;2023-04-07T11:33:44;4.88;;;1.33;;
25345;SDS011;13300;51.032;3.710;2023-04-07T11:36:41;5.82;;;1.20;;
25345;SDS011;13300;51.032;3.710;2023-04-07T11:39:19;3.60;;;1.38;;
25345;SDS011;13300;51.032;3.710;2023-04-07T11:41:46;4.32;;;1.30;;
25345;SDS011;13300;51.032;3.710;2023-04-07T11:44:13;6.97;;;1.70;;
25345;SDS011;13300;51.032;3.710;2023-04-07T11:46:59;11.55;;;2.15;;
25345;SDS011;13300;51.032;3.710;2023-04-07T11:49:35;10.95;;;2.30;;
25345;SDS011;13300;51.032;3.710;2023-04-07T11:52:11;5.15;;;1.73;;
25345;SDS011;13300;51.032;3.710;2023-04-07T11:54:52;9.80;;;2.10;;
25345;SDS011;13300;51.032;3.710;2023-04-07T11:57:29;6.78;;;1.70;;
25345;SDS011;13300;51.032;3.710;2023-04-07T12:00:09;8.98;;;2.03;;
25345;SDS011;13300;51.032;3.710;2023-04-07T12:08:41;9.73;;;1.73;;
25345;SDS011;13300;51.032;3.710;2023-04-07T12:11:10;10.73;;;1.73;;
25345;SDS011;13300;51.032;3.710;2023-04-07T12:13:59;11.10;;;2.80;;
25345;SDS011;13300;51.032;3.710;2023-04-07T12:16:36;11.57;;;2.38;;
25345;SDS011;13300;51.032;3.710;2023-04-07T12:19:28;12.20;;;2.45;;
25345;SDS011;13300;51.032;3.710;2023-04-07T12:22:04;13.50;;;2.47;;
25345;SDS011;13300;51.032;3.710;2023-04-07T12:24:41;8.00;;;1.85;;
25345;SDS011;13300;51.032;3.710;2023-04-07T12:27:06;8.60;;;1.85;;
25345;SDS011;13300;51.032;3.710;2023-04-07T12:29:41;8.65;;;2.13;;
25345;SDS011;13300;51.032;3.710;2023-04-07T12:32:09;10.57;;;1.92;;
25345;SDS011;13300;51.032;3.710;2023-04-07T12:38:28;8.60;;;2.00;;
25345;SDS011;13300;51.032;3.710;2023-04-07T12:41:03;7.25;;;1.83;;
25345;SDS011;13300;51.032;3.710;2023-04-07T12:49:54;5.43;;;2.13;;
25345;SDS011;13300;51.032;3.710;2023-04-07T12:52:26;8.02;;;2.28;;
25345;SDS011;13300;51.032;3.710;2023-04-07T13:01:54;4.45;;;1.65;;
25345;SDS011;13300;51.032;3.710;2023-04-07T13:07:59;6.53;;;2.30;;
25345;SDS011;13300;51.032;3.710;2023-04-07T13:14:21;8.98;;;2.08;;
25345;SDS011;13300;51.032;3.710;2023-04-07T13:16:53;9.73;;;2.00;;
25345;SDS011;13300;51.032;3.710;2023-04-07T13:19:19;10.43;;;1.77;;
25345;SDS011;13300;51.032;3.710;2023-04-07T13:21:45;6.22;;;1.60;;
25345;SDS011;13300;51.032;3.710;2023-04-07T13:24:15;7.50;;;1.95;;
25345;SDS011;13300;51.032;3.710;2023-04-07T13:26:44;6.78;;;1.65;;
25345;SDS011;13300;51.032;3.710;2023-04-07T13:29:23;5.07;;;1.70;;
25345;SDS011;13300;51.032;3.710;2023-04-07T13:31:50;5.43;;;1.50;;
25345;SDS011;13300;51.032;3.710;2023-04-07T13:34:27;7.47;;;1.95;;
25345;SDS011;13300;51.032;3.710;2023-04-07T13:36:55;8.93;;;1.88;;
25345;SDS011;13300;51.032;3.710;2023-04-07T13:39:33;7.07;;;1.90;;
25345;SDS011;13300;51.032;3.710;2023-04-07T13:41:59;6.70;;;1.63;;
25345;SDS011;13300;51.032;3.710;2023-04-07T13:44:48;5.38;;;1.70;;
25345;SDS011;13300;51.032;3.710;2023-04-07T13:47:21;4.30;;;1.55;;
25345;SDS011;13300;51.032;3.710;2023-04-07T13:50:21;5.18;;;1.42;;
25345;SDS011;13300;51.032;3.710;2023-04-07T13:53:14;3.17;;;1.13;;
25345;SDS011;13300;51.032;3.710;2023-04-07T13:56:17;5.88;;;1.40;;
25345;SDS011;13300;51.032;3.710;2023-04-07T13:59:21;5.82;;;1.50;;
25345;SDS011;13300;51.032;3.710;2023-04-07T14:02:30;3.80;;;1.83;;
25345;SDS011;13300;51.032;3.710;2023-04-07T14:11:35;9.83;;;2.13;;
25345;SDS011;13300;51.032;3.710;2023-04-07T14:14:11;7.85;;;2.00;;
25345;SDS011;13300;51.032;3.710;2023-04-07T14:17:13;4.38;;;1.60;;
25345;SDS011;13300;51.032;3.710;2023-04-07T14:20:10;5.97;;;1.50;;
25345;SDS011;13300;51.032;3.710;2023-04-07T14:23:02;2.78;;;1.38;;
25345;SDS011;13300;51.032;3.710;2023-04-07T14:28:42;5.53;;;1.48;;
25345;SDS011;13300;51.032;3.710;2023-04-07T14:31:37;5.32;;;1.35;;
25345;SDS011;13300;51.032;3.710;2023-04-07T14:34:24;7.18;;;1.88;;
25345;SDS011;13300;51.032;3.710;2023-04-07T14:37:10;7.63;;;1.58;;
25345;SDS011;13300;51.032;3.710;2023-04-07T14:39:42;5.47;;;1.95;;
25345;SDS011;13300;51.032;3.710;2023-04-07T14:42:41;11.30;;;2.65;;
25345;SDS011;13300;51.032;3.710;2023-04-07T14:45:34;3.05;;;1.77;;
25345;SDS011;13300;51.032;3.710;2023-04-07T14:48:00;6.97;;;2.13;;
25345;SDS011;13300;51.032;3.710;2023-04-07T14:50:38;6.95;;;2.20;;
25345;SDS011;13300;51.032;3.710;2023-04-07T14:53:36;6.50;;;2.25;;
25345;SDS011;13300;51.032;3.710;2023-04-07T14:56:12;7.57;;;2.35;;
25345;SDS011;13300;51.032;3.710;2023-04-07T14:59:22;5.20;;;1.90;;
25345;SDS011;13300;51.032;3.710;2023-04-07T15:01:51;4.22;;;1.80;;
25345;SDS011;13300;51.032;3.710;2023-04-07T15:04:20;4.28;;;2.00;;
25345;SDS011;13300;51.032;3.710;2023-04-07T15:06:53;5.72;;;1.90;;
25345;SDS011;13300;51.032;3.710;2023-04-07T15:09:24;5.80;;;2.38;;
25345;SDS011;13300;51.032;3.710;2023-04-07T15:11:49;5.45;;;1.60;;
25345;SDS011;13300;51.032;3.710;2023-04-07T15:14:15;4.72;;;1.55;;
25345;SDS011;13300;51.032;3.710;2023-04-07T15:16:45;6.93;;;1.40;;
25345;SDS011;13300;51.032;3.710;2023-04-07T15:19:14;2.72;;;1.30;;
25345;SDS011;13300;51.032;3.710;2023-04-07T15:21:45;5.13;;;1.60;;
25345;SDS011;13300;51.032;3.710;2023-04-07T15:24:14;2.88;;;1.23;;
25345;SDS011;13300;51.032;3.710;2023-04-07T15:26:45;4.47;;;1.42;;
25345;SDS011;13300;51.032;3.710;2023-04-07T15:29:11;8.05;;;1.88;;
25345;SDS011;13300;51.032;3.710;2023-04-07T15:31:36;4.85;;;1.50;;
25345;SDS011;13300;51.032;3.710;2023-04-07T15:34:02;3.80;;;1.60;;
25345;SDS011;13300;51.032;3.710;2023-04-07T15:39:29;5.80;;;2.00;;
25345;SDS011;13300;51.032;3.710;2023-04-07T15:42:03;6.55;;;1.90;;
25345;SDS011;13300;51.032;3.710;2023-04-07T15:44:34;6.00;;;1.73;;
25345;SDS011;13300;51.032;3.710;2023-04-07T15:47:09;5.90;;;1.73;;
25345;SDS011;13300;51.032;3.710;2023-04-07T15:49:35;3.97;;;1.13;;
25345;SDS011;13300;51.032;3.710;2023-04-07T15:52:06;5.63;;;1.95;;
25345;SDS011;13300;51.032;3.710;2023-04-07T15:57:21;5.45;;;1.75;;
25345;SDS011;13300;51.032;3.710;2023-04-07T15:59:47;9.18;;;2.00;;
25345;SDS011;13300;51.032;3.710;2023-04-07T16:02:16;7.25;;;2.03;;
25345;SDS011;13300;51.032;3.710;2023-04-07T16:04:45;5.57;;;1.80;;
25345;SDS011;13300;51.032;3.710;2023-04-07T16:07:41;9.48;;;2.03;;
25345;SDS011;13300;51.032;3.710;2023-04-07T16:10:12;9.55;;;3.10;;
25345;SDS011;13300;51.032;3.710;2023-04-07T16:12:40;7.68;;;2.30;;
25345;SDS011;13300;51.032;3.710;2023-04-07T16:15:09;11.60;;;4.88;;
25345;SDS011;13300;51.032;3.710;2023-04-07T16:17:45;9.98;;;3.33;;
25345;SDS011;13300;51.032;3.710;2023-04-07T16:20:12;12.80;;;2.20;;
25345;SDS011;13300;51.032;3.710;2023-04-07T16:22:42;10.52;;;2.30;;
25345;SDS011;13300;51.032;3.710;2023-04-07T16:25:17;8.60;;;1.95;;
25345;SDS011;13300;51.032;3.710;2023-04-07T16:27:45;7.15;;;2.25;;
25345;SDS011;13300;51.032;3.710;2023-04-07T16:30:18;6.22;;;2.00;;
25345;SDS011;13300;51.032;3.710;2023-04-07T16:33:07;5.72;;;1.63;;
25345;SDS011;13300;51.032;3.710;2023-04-07T16:35:38;14.73;;;4.55;;
25345;SDS011;13300;51.032;3.710;2023-04-07T16:38:30;3.97;;;1.88;;
25345;SDS011;13300;51.032;3.710;2023-04-07T16:41:46;10.02;;;1.90;;
25345;SDS011;13300;51.032;3.710;2023-04-07T16:44:11;11.55;;;3.50;;
25345;SDS011;13300;51.032;3.710;2023-04-07T16:46:40;9.32;;;1.90;;
25345;SDS011;13300;51.032;3.710;2023-04-07T16:51:44;7.20;;;1.83;;
25345;SDS011;13300;51.032;3.710;2023-04-07T16:54:17;4.57;;;1.80;;
25345;SDS011;13300;51.032;3.710;2023-04-07T16:56:43;6.70;;;1.70;;
25345;SDS011;13300;51.032;3.710;2023-04-07T16:59:18;7.68;;;2.08;;
25345;SDS011;13300;51.032;3.710;2023-04-07T17:01:53;5.63;;;1.55;;
25345;SDS011;13300;51.032;3.710;2023-04-07T17:04:20;9.88;;;2.33;;
25345;SDS011;13300;51.032;3.710;2023-04-07T17:07:08;9.20;;;2.00;;
25345;SDS011;13300;51.032;3.710;2023-04-07T17:09:37;5.40;;;1.90;;
25345;SDS011;13300;51.032;3.710;2023-04-07T17:12:11;6.32;;;1.33;;
25345;SDS011;13300;51.032;3.710;2023-04-07T17:14:42;6.25;;;2.08;;
25345;SDS011;13300;51.032;3.710;2023-04-07T17:17:10;10.73;;;2.13;;
25345;SDS011;13300;51.032;3.710;2023-04-07T17:19:41;7.85;;;1.90;;
25345;SDS011;13300;51.032;3.710;2023-04-07T17:22:16;10.50;;;2.10;;
25345;SDS011;13300;51.032;3.710;2023-04-07T17:24:41;11.65;;;3.05;;
25345;SDS011;13300;51.032;3.710;2023-04-07T17:27:07;7.68;;;2.25;;
25345;SDS011;13300;51.032;3.710;2023-04-07T17:29:51;9.02;;;2.83;;
25345;SDS011;13300;51.032;3.710;2023-04-07T17:32:19;9.43;;;2.75;;
25345;SDS011;13300;51.032;3.710;2023-04-07T17:34:46;4.13;;;1.85;;
25345;SDS011;13300;51.032;3.710;2023-04-07T17:37:11;7.65;;;2.00;;
25345;SDS011;13300;51.032;3.710;2023-04-07T17:39:37;7.60;;;2.30;;
25345;SDS011;13300;51.032;3.710;2023-04-07T17:42:03;8.23;;;2.30;;
25345;SDS011;13300;51.032;3.710;2023-04-07T17:44:29;5.15;;;1.85;;
25345;SDS011;13300;51.032;3.710;2023-04-07T17:46:55;8.10;;;2.35;;
25345;SDS011;13300;51.032;3.710;2023-04-07T17:49:24;6.78;;;1.75;;
25345;SDS011;13300;51.032;3.710;2023-04-07T17:51:54;7.25;;;1.92;;
25345;SDS011;13300;51.032;3.710;2023-04-07T17:54:28;9.77;;;2.20;;
25345;SDS011;13300;51.032;3.710;2023-04-07T17:56:53;11.13;;;3.17;;
25345;SDS011;13300;51.032;3.710;2023-04-07T17:59:22;11.25;;;2.70;;
25345;SDS011;13300;51.032;3.710;2023-04-07T18:01:48;10.48;;;2.33;;
25345;SDS011;13300;51.032;3.710;2023-04-07T18:04:14;9.00;;;2.65;;
25345;SDS011;13300;51.032;3.710;2023-04-07T18:06:40;7.47;;;2.15;;
25345;SDS011;13300;51.032;3.710;2023-04-07T18:09:06;5.32;;;2.25;;
25345;SDS011;13300;51.032;3.710;2023-04-07T18:11:35;21.17;;;8.20;;
25345;SDS011;13300;51.032;3.710;2023-04-07T18:14:04;9.95;;;3.08;;
25345;SDS011;13300;51.032;3.710;2023-04-07T18:16:37;7.38;;;2.97;;
25345;SDS011;13300;51.032;3.710;2023-04-07T18:19:05;8.25;;;3.10;;
25345;SDS011;13300;51.032;3.710;2023-04-07T18:21:31;7.28;;;2.22;;
25345;SDS011;13300;51.032;3.710;2023-04-07T18:24:02;8.75;;;2.63;;
25345;SDS011;13300;51.032;3.710;2023-04-07T18:26:31;9.32;;;2.50;;
25345;SDS011;13300;51.032;3.710;2023-04-07T18:28:59;9.20;;;2.40;;
25345;SDS011;13300;51.032;3.710;2023-04-07T18:31:28;7.53;;;2.50;;
25345;SDS011;13300;51.032;3.710;2023-04-07T18:34:06;12.85;;;2.63;;
25345;SDS011;13300;51.032;3.710;2023-04-07T18:36:53;10.52;;;2.45;;
25345;SDS011;13300;51.032;3.710;2023-04-07T18:39:31;9.45;;;3.15;;
25345;SDS011;13300;51.032;3.710;2023-04-07T18:41:58;10.07;;;2.63;;
25345;SDS011;13300;51.032;3.710;2023-04-07T18:44:24;5.47;;;2.38;;
25345;SDS011;13300;51.032;3.710;2023-04-07T18:46:55;8.48;;;2.65;;
25345;SDS011;13300;51.032;3.710;2023-04-07T18:49:23;9.57;;;2.88;;
25345;SDS011;13300;51.032;3.710;2023-04-07T18:51:49;6.03;;;2.50;;
25345;SDS011;13300;51.032;3.710;2023-04-07T18:54:43;11.88;;;2.92;;
25345;SDS011;13300;51.032;3.710;2023-04-07T19:00:33;17.00;;;4.25;;
25345;SDS011;13300;51.032;3.710;2023-04-07T19:03:09;13.18;;;4.03;;
25345;SDS011;13300;51.032;3.710;2023-04-07T19:05:36;0.05;;;0.05;;
25345;SDS011;13300;51.032;3.710;2023-04-07T19:08:07;0.10;;;0.10;;
25345;SDS011;13300;51.032;3.710;2023-04-07T19:10:33;0.30;;;0.30;;
25345;SDS011;13300;51.032;3.710;2023-04-07T19:12:59;0.35;;;0.35;;
25345;SDS011;13300;51.032;3.710;2023-04-07T19:15:26;0.10;;;0.10;;
25345;SDS011;13300;51.032;3.710;2023-04-07T19:18:03;2.45;;;0.98;;
25345;SDS011;13300;51.032;3.710;2023-04-07T19:20:40;12.07;;;3.65;;
25345;SDS011;13300;51.032;3.710;2023-04-07T19:23:08;10.32;;;3.75;;
25345;SDS011;13300;51.032;3.710;2023-04-07T19:25:34;10.32;;;3.70;;
25345;SDS011;13300;51.032;3.710;2023-04-07T19:28:00;0.17;;;0.10;;
25345;SDS011;13300;51.032;3.710;2023-04-07T19:30:27;0.60;;;0.60;;
25345;SDS011;13300;51.032;3.710;2023-04-07T19:32:52;0.00;;;0.00;;
25345;SDS011;13300;51.032;3.710;2023-04-07T19:35:19;0.85;;;0.55;;
25345;SDS011;13300;51.032;3.710;2023-04-07T19:37:47;1.23;;;0.65;;
25345;SDS011;13300;51.032;3.710;2023-04-07T19:40:20;2.92;;;0.90;;
25345;SDS011;13300;51.032;3.710;2023-04-07T19:42:48;6.72;;;0.98;;
25345;SDS011;13300;51.032;3.710;2023-04-07T19:45:14;2.92;;;1.13;;
25345;SDS011;13300;51.032;3.710;2023-04-07T19:47:56;1.00;;;0.95;;